Terminal Aerodrome Forecast
Issued by NWS

Home | Current Version | Previous Version | Text Only | Print | Product List | Glossary On
Versions: 1 2 3 4 5 6 7 8 9 10 11 12 13
665
FTUS42 KGSP 121720
TAFAND
TAF
KAND 121720Z 1218/1318 04005KT P6SM FEW050 BKN250
     FM122000 29006KT P6SM BKN200
     FM131500 32006G15KT P6SM FEW200=

USA.gov is the U.S. government's official web portal to all federal, state and local government web resources and services.